sensor_id;sensor_type;location;lat;lon;timestamp;pressure;altitude;pressure_sealevel;temperature;humidity
27864;BME280;15980;51.092;13.916;2024-02-21T00:04:12;99323.94;;;7.23;81.05
27864;BME280;15980;51.092;13.916;2024-02-21T00:14:12;99301.69;;;7.30;81.10
27864;BME280;15980;51.092;13.916;2024-02-21T00:24:13;99292.38;;;7.31;81.01
27864;BME280;15980;51.092;13.916;2024-02-21T00:34:13;99279.44;;;7.37;80.83
27864;BME280;15980;51.092;13.916;2024-02-21T00:44:13;99275.91;;;7.36;81.15
27864;BME280;15980;51.092;13.916;2024-02-21T00:54:13;99279.34;;;7.42;80.98
27864;BME280;15980;51.092;13.916;2024-02-21T01:04:14;99258.63;;;7.41;80.70
27864;BME280;15980;51.092;13.916;2024-02-21T01:14:14;99245.28;;;7.39;80.24
27864;BME280;15980;51.092;13.916;2024-02-21T01:24:14;99229.72;;;7.40;80.21
27864;BME280;15980;51.092;13.916;2024-02-21T01:34:15;99217.47;;;7.37;80.45
27864;BME280;15980;51.092;13.916;2024-02-21T01:44:15;99203.00;;;7.37;80.01
27864;BME280;15980;51.092;13.916;2024-02-21T01:54:17;99181.56;;;7.30;79.92
27864;BME280;15980;51.092;13.916;2024-02-21T02:04:19;99183.81;;;7.28;79.86
27864;BME280;15980;51.092;13.916;2024-02-21T02:14:20;99171.69;;;7.20;80.36
27864;BME280;15980;51.092;13.916;2024-02-21T02:24:21;99151.81;;;7.06;81.38
27864;BME280;15980;51.092;13.916;2024-02-21T02:34:22;99156.38;;;7.11;81.00
27864;BME280;15980;51.092;13.916;2024-02-21T02:44:22;99152.72;;;7.15;81.17
27864;BME280;15980;51.092;13.916;2024-02-21T02:54:22;99147.13;;;7.20;80.66
27864;BME280;15980;51.092;13.916;2024-02-21T03:04:22;99138.06;;;7.11;80.82
27864;BME280;15980;51.092;13.916;2024-02-21T03:14:23;99128.75;;;7.12;80.95
27864;BME280;15980;51.092;13.916;2024-02-21T03:24:23;99122.50;;;7.12;80.75
27864;BME280;15980;51.092;13.916;2024-02-21T03:34:23;99117.84;;;7.12;80.92
27864;BME280;15980;51.092;13.916;2024-02-21T03:44:24;99121.56;;;7.16;81.36
27864;BME280;15980;51.092;13.916;2024-02-21T03:54:24;99104.28;;;7.21;81.08
27864;BME280;15980;51.092;13.916;2024-02-21T04:04:24;99099.50;;;7.27;80.81
27864;BME280;15980;51.092;13.916;2024-02-21T04:14:24;99099.00;;;7.24;80.67
27864;BME280;15980;51.092;13.916;2024-02-21T04:24:25;99086.22;;;7.34;80.13
27864;BME280;15980;51.092;13.916;2024-02-21T04:34:25;99086.97;;;7.25;80.82
27864;BME280;15980;51.092;13.916;2024-02-21T04:44:25;99079.59;;;7.26;81.30
27864;BME280;15980;51.092;13.916;2024-02-21T04:54:26;99080.66;;;7.16;81.17
27864;BME280;15980;51.092;13.916;2024-02-21T05:04:26;99074.00;;;7.09;80.70
27864;BME280;15980;51.092;13.916;2024-02-21T05:14:26;99065.31;;;7.07;80.28
27864;BME280;15980;51.092;13.916;2024-02-21T05:24:27;99054.47;;;7.15;79.78
27864;BME280;15980;51.092;13.916;2024-02-21T05:34:27;99047.53;;;7.32;79.78
27864;BME280;15980;51.092;13.916;2024-02-21T05:44:29;99046.91;;;7.35;81.01
27864;BME280;15980;51.092;13.916;2024-02-21T05:54:29;99026.50;;;7.32;81.92
27864;BME280;15980;51.092;13.916;2024-02-21T06:04:29;99018.22;;;7.37;82.13
27864;BME280;15980;51.092;13.916;2024-02-21T06:14:29;99011.72;;;7.33;82.08
27864;BME280;15980;51.092;13.916;2024-02-21T06:24:30;98997.78;;;7.35;82.73
27864;BME280;15980;51.092;13.916;2024-02-21T06:34:31;98987.06;;;7.38;82.67
27864;BME280;15980;51.092;13.916;2024-02-21T06:44:31;98988.66;;;7.39;82.65
27864;BME280;15980;51.092;13.916;2024-02-21T06:54:32;98980.56;;;7.56;82.71
27864;BME280;15980;51.092;13.916;2024-02-21T07:04:32;99007.47;;;7.72;82.41
27864;BME280;15980;51.092;13.916;2024-02-21T07:14:33;99007.22;;;7.82;81.92
27864;BME280;15980;51.092;13.916;2024-02-21T07:24:33;98998.25;;;7.90;81.85
27864;BME280;15980;51.092;13.916;2024-02-21T07:34:33;99007.94;;;8.05;81.27
27864;BME280;15980;51.092;13.916;2024-02-21T07:44:34;99004.19;;;8.32;81.88
27864;BME280;15980;51.092;13.916;2024-02-21T07:54:34;98977.75;;;8.84;79.64
27864;BME280;15980;51.092;13.916;2024-02-21T08:04:34;98985.91;;;8.58;78.68
27864;BME280;15980;51.092;13.916;2024-02-21T08:14:35;98986.28;;;8.74;77.03
27864;BME280;15980;51.092;13.916;2024-02-21T08:24:35;98978.06;;;8.91;76.46
27864;BME280;15980;51.092;13.916;2024-02-21T08:34:35;98980.47;;;9.01;75.61
27864;BME280;15980;51.092;13.916;2024-02-21T08:44:35;98970.03;;;8.77;75.79
27864;BME280;15980;51.092;13.916;2024-02-21T08:54:36;98977.22;;;8.65;76.34
27864;BME280;15980;51.092;13.916;2024-02-21T09:04:36;98969.03;;;8.47;77.03
27864;BME280;15980;51.092;13.916;2024-02-21T09:14:37;98974.00;;;8.37;76.65
27864;BME280;15980;51.092;13.916;2024-02-21T09:24:37;98951.00;;;8.64;76.38
27864;BME280;15980;51.092;13.916;2024-02-21T09:34:38;98968.25;;;8.90;75.76
27864;BME280;15980;51.092;13.916;2024-02-21T09:44:38;98985.44;;;8.56;76.14
27864;BME280;15980;51.092;13.916;2024-02-21T09:54:39;98979.16;;;8.64;76.59
27864;BME280;15980;51.092;13.916;2024-02-21T10:04:40;98982.38;;;8.66;76.38
27864;BME280;15980;51.092;13.916;2024-02-21T10:14:41;98974.31;;;8.53;76.75
27864;BME280;15980;51.092;13.916;2024-02-21T10:24:41;98966.63;;;8.80;76.36
27864;BME280;15980;51.092;13.916;2024-02-21T10:34:42;98979.66;;;8.66;76.52
27864;BME280;15980;51.092;13.916;2024-02-21T10:44:44;98967.41;;;8.55;77.18
27864;BME280;15980;51.092;13.916;2024-02-21T10:54:53;98948.44;;;8.85;75.86
27864;BME280;15980;51.092;13.916;2024-02-21T11:04:55;98935.09;;;8.74;75.82
27864;BME280;15980;51.092;13.916;2024-02-21T11:15:06;98931.53;;;9.17;74.15
27864;BME280;15980;51.092;13.916;2024-02-21T11:25:07;98926.03;;;9.08;73.86
27864;BME280;15980;51.092;13.916;2024-02-21T11:35:07;98896.38;;;9.28;73.27
27864;BME280;15980;51.092;13.916;2024-02-21T11:45:08;98886.03;;;9.33;73.57
27864;BME280;15980;51.092;13.916;2024-02-21T11:55:08;98861.16;;;9.85;72.58
27864;BME280;15980;51.092;13.916;2024-02-21T12:05:09;98843.19;;;9.96;70.87
27864;BME280;15980;51.092;13.916;2024-02-21T12:15:09;98825.50;;;10.15;71.12
27864;BME280;15980;51.092;13.916;2024-02-21T12:25:16;98796.69;;;10.08;71.54
27864;BME280;15980;51.092;13.916;2024-02-21T12:35:17;98790.00;;;9.97;71.88
27864;BME280;15980;51.092;13.916;2024-02-21T12:45:17;98757.88;;;10.19;71.21
27864;BME280;15980;51.092;13.916;2024-02-21T12:55:17;98745.88;;;10.77;69.09
27864;BME280;15980;51.092;13.916;2024-02-21T13:05:17;98726.78;;;10.81;69.22
27864;BME280;15980;51.092;13.916;2024-02-21T13:15:18;98704.84;;;10.93;69.06
27864;BME280;15980;51.092;13.916;2024-02-21T13:25:18;98697.03;;;10.58;69.46
27864;BME280;15980;51.092;13.916;2024-02-21T13:35:18;98679.41;;;9.93;70.77
27864;BME280;15980;51.092;13.916;2024-02-21T13:45:19;98652.03;;;10.26;71.19
27864;BME280;15980;51.092;13.916;2024-02-21T13:55:19;98630.38;;;10.13;70.98
27864;BME280;15980;51.092;13.916;2024-02-21T14:05:20;98604.34;;;10.19;70.62
27864;BME280;15980;51.092;13.916;2024-02-21T14:15:20;98597.53;;;10.25;71.85
27864;BME280;15980;51.092;13.916;2024-02-21T14:25:20;98579.59;;;10.27;72.18
27864;BME280;15980;51.092;13.916;2024-02-21T14:35:21;98568.41;;;10.32;71.72
27864;BME280;15980;51.092;13.916;2024-02-21T14:45:21;98562.81;;;10.53;72.21
27864;BME280;15980;51.092;13.916;2024-02-21T14:55:21;98549.56;;;10.67;70.74
27864;BME280;15980;51.092;13.916;2024-02-21T15:05:22;98539.59;;;10.63;71.43
27864;BME280;15980;51.092;13.916;2024-02-21T15:15:22;98536.44;;;10.49;72.80
27864;BME280;15980;51.092;13.916;2024-02-21T15:25:23;98521.19;;;10.15;74.19
27864;BME280;15980;51.092;13.916;2024-02-21T15:35:23;98520.66;;;9.76;75.84
27864;BME280;15980;51.092;13.916;2024-02-21T15:45:23;98492.59;;;9.46;77.03
27864;BME280;15980;51.092;13.916;2024-02-21T15:55:24;98472.31;;;9.14;78.26
27864;BME280;15980;51.092;13.916;2024-02-21T16:05:24;98442.75;;;8.66;80.11
27864;BME280;15980;51.092;13.916;2024-02-21T16:15:24;98421.94;;;8.23;81.07
27864;BME280;15980;51.092;13.916;2024-02-21T16:25:25;98407.50;;;7.93;82.35
27864;BME280;15980;51.092;13.916;2024-02-21T16:35:25;98394.00;;;7.59;83.32
27864;BME280;15980;51.092;13.916;2024-02-21T16:45:25;98381.47;;;7.19;84.63
27864;BME280;15980;51.092;13.916;2024-02-21T16:55:25;98378.47;;;6.86;86.10
27864;BME280;15980;51.092;13.916;2024-02-21T17:05:26;98376.44;;;6.66;86.97
27864;BME280;15980;51.092;13.916;2024-02-21T17:15:26;98355.09;;;6.59;87.08
27864;BME280;15980;51.092;13.916;2024-02-21T17:25:26;98345.97;;;6.64;87.62
27864;BME280;15980;51.092;13.916;2024-02-21T17:35:26;98340.38;;;6.52;87.12
27864;BME280;15980;51.092;13.916;2024-02-21T17:45:27;98343.41;;;6.24;87.40
27864;BME280;15980;51.092;13.916;2024-02-21T17:55:27;98308.47;;;5.92;87.21
27864;BME280;15980;51.092;13.916;2024-02-21T18:05:27;98307.34;;;5.93;89.23
27864;BME280;15980;51.092;13.916;2024-02-21T18:15:28;98284.75;;;5.92;88.49
27864;BME280;15980;51.092;13.916;2024-02-21T18:25:28;98292.13;;;6.18;87.23
27864;BME280;15980;51.092;13.916;2024-02-21T18:35:28;98262.34;;;6.21;86.11
27864;BME280;15980;51.092;13.916;2024-02-21T18:45:29;98265.50;;;6.32;85.74
27864;BME280;15980;51.092;13.916;2024-02-21T18:55:29;98237.75;;;6.47;84.11
27864;BME280;15980;51.092;13.916;2024-02-21T19:05:29;98235.31;;;6.63;82.00
27864;BME280;15980;51.092;13.916;2024-02-21T19:15:29;98238.00;;;6.72;80.87
27864;BME280;15980;51.092;13.916;2024-02-21T19:25:30;98201.91;;;6.75;79.92
27864;BME280;15980;51.092;13.916;2024-02-21T19:35:30;98184.97;;;6.99;77.93
27864;BME280;15980;51.092;13.916;2024-02-21T19:45:30;98167.84;;;7.19;77.02
27864;BME280;15980;51.092;13.916;2024-02-21T19:55:31;98127.44;;;7.33;75.37
27864;BME280;15980;51.092;13.916;2024-02-21T20:05:31;98098.38;;;7.37;75.26
27864;BME280;15980;51.092;13.916;2024-02-21T20:15:31;98087.66;;;7.53;74.34
27864;BME280;15980;51.092;13.916;2024-02-21T20:25:32;98081.34;;;7.73;74.01
27864;BME280;15980;51.092;13.916;2024-02-21T20:35:32;98072.75;;;7.83;73.50
27864;BME280;15980;51.092;13.916;2024-02-21T20:45:33;98077.53;;;7.86;74.05
27864;BME280;15980;51.092;13.916;2024-02-21T20:55:33;98068.19;;;7.87;73.21
27864;BME280;15980;51.092;13.916;2024-02-21T21:05:33;98064.22;;;7.85;73.72
27864;BME280;15980;51.092;13.916;2024-02-21T21:15:34;98056.13;;;7.88;73.04
27864;BME280;15980;51.092;13.916;2024-02-21T21:25:35;98041.03;;;8.03;72.32
27864;BME280;15980;51.092;13.916;2024-02-21T21:35:35;98014.63;;;8.07;72.88
27864;BME280;15980;51.092;13.916;2024-02-21T21:45:35;98003.81;;;8.11;72.48
27864;BME280;15980;51.092;13.916;2024-02-21T21:55:36;97987.41;;;8.11;72.86
27864;BME280;15980;51.092;13.916;2024-02-21T22:05:36;97987.63;;;8.06;73.32
27864;BME280;15980;51.092;13.916;2024-02-21T22:15:37;97985.69;;;8.06;73.31
27864;BME280;15980;51.092;13.916;2024-02-21T22:25:37;97966.00;;;8.01;74.21
27864;BME280;15980;51.092;13.916;2024-02-21T22:35:37;97965.66;;;8.02;73.17
27864;BME280;15980;51.092;13.916;2024-02-21T22:45:38;97956.00;;;8.05;73.25
27864;BME280;15980;51.092;13.916;2024-02-21T22:55:38;97941.75;;;8.11;71.82
27864;BME280;15980;51.092;13.916;2024-02-21T23:05:38;97923.88;;;8.14;71.75
27864;BME280;15980;51.092;13.916;2024-02-21T23:15:39;97918.28;;;8.23;70.34
27864;BME280;15980;51.092;13.916;2024-02-21T23:25:39;97898.38;;;8.34;70.30
27864;BME280;15980;51.092;13.916;2024-02-21T23:35:39;97889.84;;;8.36;68.83
27864;BME280;15980;51.092;13.916;2024-02-21T23:45:39;97872.06;;;8.42;67.89
27864;BME280;15980;51.092;13.916;2024-02-21T23:55:40;97853.13;;;8.49;66.35
